createdAt,value
2023-03-19T00:00:34.468Z,7.10
2023-03-19T00:03:02.484Z,7.57
2023-03-19T00:05:30.921Z,6.67
2023-03-19T00:07:59.014Z,7.33
2023-03-19T00:10:27.322Z,6.23
2023-03-19T00:12:55.508Z,5.60
2023-03-19T00:15:24.663Z,8.10
2023-03-19T00:18:11.218Z,9.67
2023-03-19T00:20:39.269Z,8.17
2023-03-19T00:23:07.364Z,8.37
2023-03-19T00:25:36.521Z,7.70
2023-03-19T00:28:04.459Z,7.17
2023-03-19T00:30:34.036Z,7.70
2023-03-19T00:33:02.222Z,9.17
2023-03-19T00:35:30.539Z,7.70
2023-03-19T00:37:58.722Z,7.67
2023-03-19T00:40:27.397Z,10.57
2023-03-19T00:42:55.351Z,8.37
2023-03-19T00:45:24.012Z,7.17
2023-03-19T00:47:53.265Z,5.27
2023-03-19T00:50:21.800Z,8.20
2023-03-19T00:52:49.818Z,7.07
2023-03-19T00:55:19.186Z,6.17
2023-03-19T00:57:47.304Z,7.53
2023-03-19T01:02:43.061Z,8.23
2023-03-19T01:05:12.722Z,6.23
2023-03-19T01:07:40.936Z,6.87
2023-03-19T01:10:11.066Z,7.50
2023-03-19T01:12:40.163Z,7.93
2023-03-19T01:15:09.527Z,5.40
2023-03-19T01:17:37.685Z,5.70
2023-03-19T01:20:08.814Z,6.43
2023-03-19T01:22:38.573Z,7.60
2023-03-19T01:25:07.957Z,8.13
2023-03-19T01:27:37.275Z,6.70
2023-03-19T01:30:07.449Z,6.50
2023-03-19T01:32:58.467Z,6.13
2023-03-19T01:35:38.234Z,8.23
2023-03-19T01:38:08.919Z,7.03
2023-03-19T01:40:37.943Z,6.87
2023-03-19T01:43:18.526Z,7.57
2023-03-19T01:46:09.482Z,5.03
2023-03-19T01:48:57.216Z,5.90
2023-03-19T01:51:28.976Z,4.63
2023-03-19T01:54:06.700Z,6.77
2023-03-19T01:56:46.341Z,5.63
2023-03-19T01:59:23.753Z,4.97
2023-03-19T02:02:16.324Z,6.67
2023-03-19T02:04:47.985Z,5.00
2023-03-19T02:07:16.989Z,5.13
2023-03-19T02:09:46.782Z,9.40
2023-03-19T02:12:15.774Z,7.67
2023-03-19T02:14:43.848Z,8.57
2023-03-19T02:17:12.473Z,9.37
2023-03-19T02:19:49.001Z,7.30
2023-03-19T02:22:21.618Z,9.37
2023-03-19T02:24:54.483Z,9.47
2023-03-19T02:27:25.229Z,8.37
2023-03-19T02:29:53.494Z,7.67
2023-03-19T02:32:22.838Z,10.20
2023-03-19T02:34:50.906Z,7.47
2023-03-19T02:37:23.638Z,5.93
2023-03-19T02:39:56.796Z,7.60
2023-03-19T02:42:29.035Z,7.27
2023-03-19T02:44:58.307Z,13.50
2023-03-19T02:47:27.311Z,14.27
2023-03-19T02:49:55.487Z,13.77
2023-03-19T02:52:24.336Z,13.40
2023-03-19T02:54:52.222Z,10.03
2023-03-19T02:57:20.497Z,8.90
2023-03-19T02:59:49.855Z,8.23
2023-03-19T03:02:18.041Z,7.60
2023-03-19T03:04:47.544Z,7.90
2023-03-19T03:07:15.515Z,7.53
2023-03-19T03:09:43.727Z,9.10
2023-03-19T03:12:12.171Z,6.40
2023-03-19T03:14:40.729Z,8.30
2023-03-19T03:17:10.232Z,9.77
2023-03-19T03:19:38.453Z,7.50
2023-03-19T03:22:06.722Z,9.90
2023-03-19T03:24:34.917Z,8.73
2023-03-19T03:27:03.203Z,7.60
2023-03-19T03:29:31.448Z,8.13
2023-03-19T03:31:59.350Z,8.57
2023-03-19T03:34:29.525Z,8.93
2023-03-19T03:36:57.795Z,8.80
2023-03-19T03:39:26.495Z,10.83
2023-03-19T03:41:54.445Z,10.10
2023-03-19T03:44:22.734Z,9.17
2023-03-19T03:46:50.653Z,7.67
2023-03-19T03:49:18.822Z,7.63
2023-03-19T03:51:48.173Z,9.00
2023-03-19T03:54:16.897Z,7.17
2023-03-19T03:56:44.948Z,9.20
2023-03-19T03:59:13.052Z,8.33
2023-03-19T04:01:41.236Z,7.33
2023-03-19T04:04:09.691Z,8.23
2023-03-19T04:06:37.807Z,6.77
2023-03-19T04:09:17.284Z,6.47
2023-03-19T04:11:45.559Z,6.77
2023-03-19T04:14:13.806Z,5.87
2023-03-19T04:16:43.264Z,7.63
2023-03-19T04:19:11.975Z,8.40
2023-03-19T04:21:40.011Z,7.67
2023-03-19T04:24:09.948Z,8.47
2023-03-19T04:26:39.243Z,6.50
2023-03-19T04:29:08.604Z,8.67
2023-03-19T04:31:37.387Z,12.07
2023-03-19T04:34:05.948Z,15.20
2023-03-19T04:36:33.922Z,10.00
2023-03-19T04:39:02.314Z,7.93
2023-03-19T04:41:30.283Z,9.30
2023-03-19T04:44:26.022Z,9.20
2023-03-19T04:46:55.028Z,8.90
2023-03-19T04:49:26.065Z,7.53
2023-03-19T04:51:57.641Z,7.90
2023-03-19T04:54:25.988Z,6.17
2023-03-19T04:56:54.151Z,6.60
2023-03-19T04:59:26.238Z,9.33
2023-03-19T05:01:55.180Z,5.70
2023-03-19T05:04:25.139Z,8.57
2023-03-19T05:06:57.355Z,8.50
2023-03-19T05:09:26.206Z,6.83
2023-03-19T05:11:54.234Z,7.57
2023-03-19T05:14:25.331Z,7.07
2023-03-19T05:17:07.454Z,7.50
2023-03-19T05:19:56.020Z,6.13
2023-03-19T05:22:24.923Z,7.73
2023-03-19T05:24:53.555Z,8.17
2023-03-19T05:27:21.940Z,8.47
2023-03-19T05:30:13.171Z,7.50
2023-03-19T05:32:59.804Z,8.77
2023-03-19T05:35:40.610Z,8.40
2023-03-19T05:38:19.281Z,7.70
2023-03-19T05:40:54.889Z,8.47
2023-03-19T05:43:29.300Z,8.37
2023-03-19T05:45:59.066Z,7.67
2023-03-19T05:48:31.026Z,8.33
2023-03-19T05:50:59.918Z,8.17
2023-03-19T05:53:33.878Z,10.17
2023-03-19T05:56:21.753Z,8.20
2023-03-19T05:59:03.250Z,7.37
2023-03-19T06:01:38.907Z,9.27
2023-03-19T06:04:07.205Z,7.47
2023-03-19T06:06:35.340Z,15.70
2023-03-19T06:09:04.320Z,19.27
2023-03-19T06:11:40.489Z,19.30
2023-03-19T06:14:27.587Z,27.77
2023-03-19T06:17:20.007Z,31.70
2023-03-19T06:19:49.563Z,26.90
2023-03-19T06:22:18.462Z,30.20
2023-03-19T06:24:46.804Z,22.10
2023-03-19T06:27:14.980Z,19.40
2023-03-19T06:29:42.976Z,15.23
2023-03-19T06:32:23.815Z,12.67
2023-03-19T06:34:55.096Z,9.63
2023-03-19T06:37:23.745Z,12.60
2023-03-19T06:39:54.473Z,8.70
2023-03-19T06:42:22.768Z,11.33
2023-03-19T06:44:53.481Z,9.50
2023-03-19T06:47:23.138Z,7.27
2023-03-19T06:49:51.396Z,6.53
2023-03-19T06:52:19.626Z,6.10
2023-03-19T06:54:47.655Z,7.10
2023-03-19T06:57:16.125Z,6.47
2023-03-19T06:59:44.221Z,7.90
2023-03-19T07:02:13.223Z,7.93
2023-03-19T07:04:42.546Z,7.90
2023-03-19T07:07:11.015Z,9.43
2023-03-19T07:09:38.979Z,8.57
2023-03-19T07:12:07.670Z,8.50
2023-03-19T07:14:35.678Z,7.60
2023-03-19T07:17:04.142Z,9.43
2023-03-19T07:19:32.010Z,10.00
2023-03-19T07:22:01.546Z,7.17
2023-03-19T07:24:29.469Z,6.80
2023-03-19T07:26:58.745Z,8.20
2023-03-19T07:29:26.948Z,7.13
2023-03-19T07:31:55.613Z,10.27
2023-03-19T07:34:24.106Z,7.47
2023-03-19T07:36:53.041Z,10.53
2023-03-19T07:39:22.630Z,7.33
2023-03-19T07:41:50.706Z,6.63
2023-03-19T07:44:18.931Z,7.60
2023-03-19T07:46:46.854Z,7.83
2023-03-19T07:49:14.919Z,7.10
2023-03-19T07:51:42.817Z,8.40
2023-03-19T07:54:11.109Z,8.13
2023-03-19T07:56:40.470Z,8.43
2023-03-19T07:59:08.934Z,8.33
2023-03-19T08:01:38.010Z,9.43
2023-03-19T08:04:06.164Z,8.00
2023-03-19T08:06:34.431Z,7.43
2023-03-19T08:09:02.934Z,8.23
2023-03-19T08:11:31.125Z,8.73
2023-03-19T08:14:00.533Z,6.37
2023-03-19T08:16:28.775Z,7.00
2023-03-19T08:18:56.875Z,6.90
2023-03-19T08:21:25.278Z,6.73
2023-03-19T08:23:53.961Z,8.03
2023-03-19T08:26:22.019Z,7.13
2023-03-19T08:28:50.271Z,6.93
2023-03-19T08:31:19.708Z,7.40
2023-03-19T08:33:48.031Z,8.97
2023-03-19T08:36:16.394Z,9.90
2023-03-19T08:38:45.094Z,12.60
2023-03-19T08:41:13.278Z,10.73
2023-03-19T08:43:41.654Z,7.30
2023-03-19T08:46:09.809Z,8.57
2023-03-19T08:48:41.455Z,4.17
2023-03-19T08:51:10.621Z,3.87
2023-03-19T08:53:39.186Z,6.60
2023-03-19T08:56:08.674Z,5.43
2023-03-19T08:58:37.019Z,3.47
2023-03-19T09:01:07.230Z,3.10
2023-03-19T09:03:35.626Z,4.57
2023-03-19T09:06:06.621Z,3.77
2023-03-19T09:08:35.787Z,4.40
2023-03-19T09:11:04.227Z,2.40
2023-03-19T09:13:32.768Z,1.93
2023-03-19T09:16:01.394Z,2.60
2023-03-19T09:18:29.352Z,2.83
2023-03-19T09:20:57.582Z,3.00
2023-03-19T09:23:27.041Z,2.77
2023-03-19T09:25:55.729Z,3.33
2023-03-19T09:28:23.963Z,2.07
2023-03-19T09:30:52.487Z,2.33
2023-03-19T09:33:21.821Z,3.43
2023-03-19T09:35:54.963Z,1.93
2023-03-19T09:38:23.452Z,2.20
2023-03-19T09:41:08.079Z,2.83
2023-03-19T09:43:50.571Z,2.57
2023-03-19T09:46:22.959Z,2.33
2023-03-19T09:48:56.437Z,3.73
2023-03-19T09:51:31.565Z,2.33
2023-03-19T09:54:02.966Z,2.73
2023-03-19T09:56:33.874Z,3.07
2023-03-19T09:59:03.168Z,3.37
2023-03-19T10:01:37.580Z,2.80
2023-03-19T10:04:33.836Z,2.67
2023-03-19T10:07:07.838Z,2.37
2023-03-19T10:09:45.295Z,1.93
2023-03-19T10:12:26.302Z,2.90
2023-03-19T10:15:13.854Z,2.63
2023-03-19T10:17:50.117Z,2.00
2023-03-19T10:20:26.325Z,2.47
2023-03-19T10:23:01.565Z,2.97
2023-03-19T10:25:33.696Z,2.57
2023-03-19T10:28:14.563Z,1.70
2023-03-19T10:30:43.891Z,2.80
2023-03-19T10:33:22.271Z,2.20
2023-03-19T10:35:58.215Z,1.80
2023-03-19T10:38:27.504Z,1.53
2023-03-19T10:41:09.659Z,3.50
2023-03-19T10:43:41.151Z,3.53
2023-03-19T10:46:13.926Z,2.97
2023-03-19T10:48:45.387Z,2.13
2023-03-19T10:51:16.737Z,3.17
2023-03-19T10:53:44.941Z,2.40
2023-03-19T10:56:20.386Z,3.20
2023-03-19T10:59:00.738Z,1.80
2023-03-19T11:01:32.939Z,1.53
2023-03-19T11:04:02.219Z,3.37
2023-03-19T11:06:34.417Z,1.17
2023-03-19T11:09:04.289Z,1.17
2023-03-19T11:11:37.578Z,0.40
2023-03-19T11:14:15.493Z,1.50
2023-03-19T11:16:57.470Z,1.03
2023-03-19T11:19:28.138Z,1.13
2023-03-19T11:22:10.048Z,1.20
2023-03-19T11:24:39.010Z,1.03
2023-03-19T11:27:07.318Z,2.10
2023-03-19T11:29:40.825Z,1.30
2023-03-19T11:32:22.305Z,1.43
2023-03-19T11:34:57.520Z,1.03
2023-03-19T11:37:33.809Z,1.27
2023-03-19T11:40:11.412Z,0.70
2023-03-19T11:43:01.491Z,0.87
2023-03-19T11:45:39.882Z,0.87
2023-03-19T11:48:28.989Z,0.50
2023-03-19T11:51:01.500Z,0.80
2023-03-19T11:53:33.301Z,0.73
2023-03-19T11:56:09.210Z,0.90
2023-03-19T11:58:56.196Z,1.57
2023-03-19T12:01:39.558Z,0.70
2023-03-19T12:04:26.544Z,0.73
2023-03-19T12:07:03.461Z,0.70
2023-03-19T12:09:39.364Z,0.80
2023-03-19T12:12:17.598Z,0.90
2023-03-19T12:14:57.459Z,0.63
2023-03-19T12:17:38.453Z,1.37
2023-03-19T12:20:32.575Z,0.40
2023-03-19T12:23:12.898Z,1.23
2023-03-19T12:26:04.635Z,0.83
2023-03-19T12:28:35.857Z,0.60
2023-03-19T12:31:41.416Z,0.60
2023-03-19T12:34:23.954Z,0.93
2023-03-19T12:36:55.748Z,0.60
2023-03-19T12:39:27.397Z,0.27
2023-03-19T12:41:57.169Z,0.30
2023-03-19T12:44:30.875Z,0.30
2023-03-19T12:47:04.709Z,0.60
2023-03-19T12:49:39.005Z,1.00
2023-03-19T12:52:19.153Z,0.73
2023-03-19T12:54:51.908Z,0.50
2023-03-19T12:57:28.398Z,0.37
2023-03-19T13:00:02.433Z,0.50
2023-03-19T13:02:38.931Z,0.37
2023-03-19T13:05:22.995Z,0.83
2023-03-19T13:07:58.880Z,0.93
2023-03-19T13:10:27.830Z,0.53
2023-03-19T13:12:57.081Z,0.33
2023-03-19T13:15:30.437Z,0.37
2023-03-19T13:18:12.244Z,0.17
2023-03-19T13:20:58.105Z,0.30
2023-03-19T13:23:30.308Z,0.63
2023-03-19T13:26:00.142Z,0.10
2023-03-19T13:28:30.949Z,0.10
2023-03-19T13:31:04.240Z,0.50
2023-03-19T13:33:33.115Z,0.10
2023-03-19T13:36:06.441Z,0.20
2023-03-19T13:38:41.606Z,0.30
2023-03-19T13:41:48.111Z,0.20
2023-03-19T13:44:36.423Z,0.10
2023-03-19T13:47:44.547Z,0.30
2023-03-19T13:50:31.617Z,0.80
2023-03-19T13:53:33.870Z,1.03
2023-03-19T13:56:12.765Z,0.23
2023-03-19T13:58:56.411Z,0.60
2023-03-19T14:01:41.513Z,0.40
2023-03-19T14:04:27.913Z,0.87
2023-03-19T14:06:59.180Z,0.33
2023-03-19T14:09:43.949Z,0.30
2023-03-19T14:12:22.060Z,0.37
2023-03-19T14:14:53.265Z,0.37
2023-03-19T14:17:25.193Z,0.63
2023-03-19T14:19:55.482Z,0.97
2023-03-19T14:22:36.006Z,1.03
2023-03-19T14:25:17.664Z,0.50
2023-03-19T14:27:49.078Z,0.30
2023-03-19T14:30:31.503Z,2.20
2023-03-19T14:33:05.953Z,0.80
2023-03-19T14:35:37.794Z,1.33
2023-03-19T14:38:13.558Z,0.43
2023-03-19T14:40:47.509Z,0.37
2023-03-19T14:43:23.867Z,0.80
2023-03-19T14:45:59.954Z,0.67
2023-03-19T14:49:03.870Z,0.30
2023-03-19T14:51:59.195Z,1.07
2023-03-19T14:54:34.598Z,0.40
2023-03-19T14:57:09.541Z,0.27
2023-03-19T14:59:41.073Z,1.13
2023-03-19T15:02:26.434Z,1.13
2023-03-19T15:04:56.172Z,0.80
2023-03-19T15:07:30.402Z,0.33
2023-03-19T15:10:05.325Z,1.17
2023-03-19T15:12:56.986Z,2.43
2023-03-19T15:15:40.769Z,0.30
2023-03-19T15:18:11.633Z,0.80
2023-03-19T15:20:43.706Z,1.43
2023-03-19T15:23:26.175Z,0.50
2023-03-19T15:25:57.691Z,0.50
2023-03-19T15:28:28.810Z,0.73
2023-03-19T15:31:08.553Z,0.43
2023-03-19T15:33:45.585Z,0.43
2023-03-19T15:36:19.450Z,1.57
2023-03-19T15:38:53.239Z,0.87
2023-03-19T15:41:24.703Z,0.37
2023-03-19T15:43:54.854Z,0.57
2023-03-19T15:46:26.321Z,1.10
2023-03-19T15:48:59.586Z,1.27
2023-03-19T15:51:28.440Z,0.50
2023-03-19T15:53:56.890Z,0.40
2023-03-19T15:56:26.135Z,1.13
2023-03-19T15:58:58.382Z,0.67
2023-03-19T16:01:27.989Z,0.50
2023-03-19T16:04:00.219Z,1.03
2023-03-19T16:06:30.873Z,1.30
2023-03-19T16:09:20.821Z,0.57
2023-03-19T16:11:49.641Z,0.53
2023-03-19T16:14:26.078Z,2.20
2023-03-19T16:17:01.025Z,0.50
2023-03-19T16:19:34.904Z,1.20
2023-03-19T16:22:05.437Z,0.47
2023-03-19T16:24:37.651Z,0.80
2023-03-19T16:27:08.808Z,0.90
2023-03-19T16:29:41.653Z,0.90
2023-03-19T16:32:23.112Z,0.30
2023-03-19T16:34:53.477Z,0.90
2023-03-19T16:37:43.400Z,1.10
2023-03-19T16:40:40.448Z,0.30
2023-03-19T16:43:15.100Z,0.83
2023-03-19T16:45:44.972Z,0.70
2023-03-19T16:48:13.134Z,0.53
2023-03-19T16:50:43.714Z,1.30
2023-03-19T16:53:21.662Z,1.17
2023-03-19T16:55:50.521Z,0.83
2023-03-19T16:58:21.310Z,1.73
2023-03-19T17:00:50.867Z,1.03
2023-03-19T17:03:20.077Z,1.20
2023-03-19T17:05:48.957Z,2.60
2023-03-19T17:08:17.184Z,1.70
2023-03-19T17:10:49.411Z,1.60
2023-03-19T17:13:19.770Z,1.03
2023-03-19T17:15:50.553Z,1.03
2023-03-19T17:18:22.612Z,0.70
2023-03-19T17:20:55.749Z,1.10
2023-03-19T17:23:26.856Z,0.60
2023-03-19T17:25:55.865Z,1.53
2023-03-19T17:28:24.766Z,1.30
2023-03-19T17:30:54.296Z,0.67
2023-03-19T17:33:25.715Z,0.87
2023-03-19T17:35:54.892Z,0.93
2023-03-19T17:38:26.387Z,1.53
2023-03-19T17:40:54.224Z,2.03
2023-03-19T17:43:22.550Z,1.20
2023-03-19T17:45:50.979Z,0.87
2023-03-19T17:48:23.868Z,0.67
2023-03-19T17:50:52.373Z,1.47
2023-03-19T17:53:20.452Z,0.90
2023-03-19T17:55:48.611Z,1.17
2023-03-19T17:58:18.722Z,1.73
2023-03-19T18:00:47.877Z,1.27
2023-03-19T18:03:18.416Z,0.87
2023-03-19T18:05:47.987Z,2.83
2023-03-19T18:08:18.341Z,2.10
2023-03-19T18:10:46.447Z,1.40
2023-03-19T18:13:14.520Z,1.40
2023-03-19T18:15:44.766Z,2.90
2023-03-19T18:18:17.593Z,1.97
2023-03-19T18:20:48.456Z,1.83
2023-03-19T18:23:17.346Z,1.47
2023-03-19T18:25:46.326Z,2.73
2023-03-19T18:28:14.434Z,6.10
2023-03-19T18:30:43.295Z,6.27
2023-03-19T18:33:16.150Z,5.57
2023-03-19T18:35:47.715Z,5.43
2023-03-19T18:38:18.746Z,5.00
2023-03-19T18:40:47.620Z,4.47
2023-03-19T18:43:16.526Z,5.03
2023-03-19T18:45:46.706Z,4.83
2023-03-19T18:48:22.131Z,6.37
2023-03-19T18:50:52.720Z,11.97
2023-03-19T18:53:20.810Z,6.23
2023-03-19T18:55:49.529Z,7.40
2023-03-19T18:58:21.018Z,5.60
2023-03-19T19:00:49.947Z,5.83
2023-03-19T19:03:20.767Z,3.70
2023-03-19T19:05:49.825Z,4.63
2023-03-19T19:08:20.943Z,2.63
2023-03-19T19:10:51.319Z,2.27
2023-03-19T19:13:21.969Z,2.37
2023-03-19T19:15:50.351Z,2.20
2023-03-19T19:18:20.676Z,1.80
2023-03-19T19:20:51.376Z,4.07
2023-03-19T19:23:21.669Z,3.80
2023-03-19T19:25:53.200Z,4.10
2023-03-19T19:28:26.623Z,3.23
2023-03-19T19:30:57.615Z,3.73
2023-03-19T19:33:28.667Z,2.30
2023-03-19T19:35:57.305Z,2.57
2023-03-19T19:38:26.680Z,4.83
2023-03-19T19:40:58.377Z,3.63
2023-03-19T19:43:30.979Z,2.83
2023-03-19T19:46:00.299Z,2.17
2023-03-19T19:48:30.535Z,2.37
2023-03-19T19:50:59.038Z,1.73
2023-03-19T19:53:29.666Z,2.13
2023-03-19T19:55:58.468Z,4.47
2023-03-19T19:58:30.875Z,1.70
2023-03-19T20:01:03.862Z,2.17
2023-03-19T20:03:34.876Z,2.43
2023-03-19T20:06:03.622Z,4.70
2023-03-19T20:08:32.903Z,2.30
2023-03-19T20:11:01.284Z,2.33
2023-03-19T20:13:33.402Z,2.40
2023-03-19T20:16:03.478Z,2.20
2023-03-19T20:18:35.414Z,3.17
2023-03-19T20:21:04.062Z,1.67
2023-03-19T20:23:33.347Z,2.47
2023-03-19T20:26:02.813Z,2.33
2023-03-19T20:28:35.358Z,1.40
2023-03-19T20:31:05.224Z,2.17
2023-03-19T20:33:34.395Z,2.33
2023-03-19T20:36:03.077Z,2.60
2023-03-19T20:38:31.293Z,2.17
2023-03-19T20:41:00.611Z,2.87
2023-03-19T20:43:31.177Z,3.90
2023-03-19T20:46:01.742Z,4.30
2023-03-19T20:48:30.604Z,4.40
2023-03-19T20:50:59.655Z,2.73
2023-03-19T20:53:27.965Z,2.43
2023-03-19T20:55:56.420Z,2.03
2023-03-19T20:58:29.525Z,2.40
2023-03-19T21:00:58.971Z,3.40
2023-03-19T21:03:28.613Z,2.90
2023-03-19T21:06:02.021Z,2.10
2023-03-19T21:08:34.105Z,3.33
2023-03-19T21:11:02.949Z,2.20
2023-03-19T21:13:32.790Z,2.13
2023-03-19T21:16:02.108Z,4.17
2023-03-19T21:18:30.244Z,1.23
2023-03-19T21:21:00.192Z,2.03
2023-03-19T21:23:31.634Z,4.50
2023-03-19T21:26:01.481Z,5.53
2023-03-19T21:28:35.392Z,2.20
2023-03-19T21:31:03.969Z,2.57
2023-03-19T21:33:33.524Z,3.33
2023-03-19T21:36:03.308Z,2.70
2023-03-19T21:38:33.070Z,2.37
2023-03-19T21:41:03.542Z,2.57
2023-03-19T21:43:35.747Z,3.77
2023-03-19T21:46:22.897Z,2.63
2023-03-19T21:48:51.898Z,1.87
2023-03-19T21:51:20.467Z,2.20
2023-03-19T21:53:48.775Z,3.90
2023-03-19T21:56:23.163Z,2.37
2023-03-19T21:58:53.805Z,2.30
2023-03-19T22:01:24.846Z,3.80
2023-03-19T22:03:53.493Z,3.13
2023-03-19T22:06:22.161Z,3.00
2023-03-19T22:08:50.926Z,3.67
2023-03-19T22:11:23.794Z,3.23
2023-03-19T22:13:53.290Z,3.47
2023-03-19T22:16:24.111Z,2.83
2023-03-19T22:18:53.474Z,3.90
2023-03-19T22:21:23.135Z,2.20
2023-03-19T22:23:52.027Z,2.10
2023-03-19T22:26:29.729Z,4.70
2023-03-19T22:29:01.650Z,5.23
2023-03-19T22:31:30.149Z,6.97
2023-03-19T22:33:58.329Z,4.47
2023-03-19T22:36:26.452Z,8.20
2023-03-19T22:38:54.369Z,5.43
2023-03-19T22:41:28.295Z,5.67
2023-03-19T22:43:57.158Z,7.17
2023-03-19T22:46:27.878Z,6.27
2023-03-19T22:48:55.945Z,8.40
2023-03-19T22:51:27.482Z,6.70
2023-03-19T22:53:56.425Z,6.13
2023-03-19T22:56:24.492Z,6.97
2023-03-19T22:58:52.970Z,4.80
2023-03-19T23:01:31.452Z,5.33
2023-03-19T23:04:15.951Z,4.63
2023-03-19T23:06:44.310Z,4.80
2023-03-19T23:09:16.610Z,5.33
2023-03-19T23:11:44.620Z,3.83
2023-03-19T23:14:26.367Z,3.37
2023-03-19T23:16:59.933Z,3.10
2023-03-19T23:19:30.146Z,2.63
2023-03-19T23:21:59.692Z,2.43
2023-03-19T23:24:28.039Z,4.73
2023-03-19T23:26:58.125Z,4.30
2023-03-19T23:29:30.462Z,5.97
2023-03-19T23:31:59.723Z,5.73
2023-03-19T23:34:29.214Z,7.27
2023-03-19T23:36:58.043Z,7.57
2023-03-19T23:39:26.730Z,8.23
2023-03-19T23:41:58.855Z,8.07
2023-03-19T23:44:29.346Z,8.53
2023-03-19T23:47:02.854Z,10.70
2023-03-19T23:49:33.940Z,10.67
2023-03-19T23:52:04.539Z,12.17
2023-03-19T23:54:35.141Z,12.40
2023-03-19T23:57:06.558Z,13.90
2023-03-19T23:59:36.841Z,12.10
